Time;durP1;ratioP1;P1;durP2;ratioP2;P2;SDS_P1;SDS_P2;PMS_P1;PMS_P2;Temp;Humidity;BMP_temperature;BMP_pressure;BME280_temperature;BME280_humidity;BME280_pressure;Samples;Min_cycle;Max_cycle;Signal;HPM_P1;HPM_P2
2022/12/30 00:00:45;;;;;;;25.20;17.25;;;;;;;;;;5065104;28;20032;-75
2022/12/30 00:03:11;;;;;;;28.77;18.42;;;;;;;;;;5070223;28;20047;-75
2022/12/30 00:05:37;;;;;;;23.00;15.98;;;;;;;;;;5058188;28;20580;-75
2022/12/30 00:08:03;;;;;;;22.77;14.38;;;;;;;;;;5068903;28;20068;-75
2022/12/30 00:10:29;;;;;;;20.77;12.55;;;;;;;;;;5059151;28;20040;-75
2022/12/30 00:34:59;;;;;;;18.98;11.60;;;;;;;;;;5061662;28;20048;-75
2022/12/30 00:37:25;;;;;;;18.25;12.63;;;;;;;;;;5065582;28;20123;-74
2022/12/30 00:39:52;;;;;;;21.20;14.50;;;;;;;;;;5062521;28;20757;-74
2022/12/30 00:45:03;;;;;;;29.77;18.95;;;;;;;;;;5054061;28;20044;-75
2022/12/30 00:47:29;;;;;;;27.08;17.13;;;;;;;;;;5059420;28;21019;-74
2022/12/30 00:58:09;;;;;;;19.15;10.38;;;;;;;;;;5065608;28;20054;-74
2022/12/30 01:00:35;;;;;;;19.60;10.85;;;;;;;;;;5068121;28;20056;-74
2022/12/30 01:03:01;;;;;;;13.93;7.32;;;;;;;;;;5058363;28;20091;-74
2022/12/30 01:05:27;;;;;;;9.75;5.40;;;;;;;;;;5069170;28;20029;-75
2022/12/30 01:07:53;;;;;;;10.85;5.63;;;;;;;;;;5068353;28;20036;-74
2022/12/30 01:10:19;;;;;;;7.28;4.35;;;;;;;;;;5065220;28;20121;-75
2022/12/30 01:12:45;;;;;;;6.43;3.25;;;;;;;;;;5049887;28;20399;-75
2022/12/30 01:15:11;;;;;;;4.35;2.38;;;;;;;;;;5061018;28;20060;-75
2022/12/30 01:17:37;;;;;;;5.18;2.38;;;;;;;;;;5057653;28;20499;-74
2022/12/30 01:20:04;;;;;;;7.78;2.25;;;;;;;;;;5064040;28;20032;-75
2022/12/30 01:22:30;;;;;;;7.15;1.60;;;;;;;;;;5065029;28;20075;-75
2022/12/30 01:24:56;;;;;;;5.47;0.95;;;;;;;;;;5068974;28;20475;-74
2022/12/30 01:27:22;;;;;;;2.53;1.10;;;;;;;;;;5068716;28;20047;-74
2022/12/30 01:29:48;;;;;;;3.80;1.10;;;;;;;;;;5067323;28;20028;-75
2022/12/30 01:32:16;;;;;;;4.60;1.50;;;;;;;;;;5067675;28;20052;-75
2022/12/30 01:34:42;;;;;;;13.40;5.75;;;;;;;;;;5059259;28;20039;-75
2022/12/30 01:37:08;;;;;;;7.50;4.10;;;;;;;;;;5068382;28;20078;-75
2022/12/30 01:39:34;;;;;;;7.05;2.70;;;;;;;;;;5068963;28;20043;-74
2022/12/30 01:42:00;;;;;;;4.28;1.77;;;;;;;;;;5068037;28;20044;-74
2022/12/30 01:44:45;;;;;;;2.50;0.95;;;;;;;;;;5068497;28;20036;-74
2022/12/30 01:47:12;;;;;;;1.83;0.50;;;;;;;;;;5068081;28;20112;-74
2022/12/30 01:49:40;;;;;;;1.50;0.32;;;;;;;;;;5068639;28;20028;-75
2022/12/30 01:52:06;;;;;;;1.58;0.30;;;;;;;;;;5064999;28;20055;-74
2022/12/30 01:54:34;;;;;;;0.32;0.10;;;;;;;;;;5053340;28;20043;-75
2022/12/30 01:57:00;;;;;;;2.10;0.15;;;;;;;;;;5061481;28;20093;-74
2022/12/30 01:59:27;;;;;;;1.20;0.30;;;;;;;;;;5058401;28;20036;-74
2022/12/30 02:01:54;;;;;;;2.45;0.50;;;;;;;;;;5067778;28;20060;-75
2022/12/30 02:04:21;;;;;;;2.97;0.80;;;;;;;;;;5067970;28;20118;-74
2022/12/30 02:06:59;;;;;;;3.40;1.33;;;;;;;;;;5067263;28;20033;-75
2022/12/30 02:09:30;;;;;;;6.93;2.33;;;;;;;;;;5066041;28;20070;-75
2022/12/30 02:11:56;;;;;;;5.72;2.45;;;;;;;;;;5066995;28;20082;-75
2022/12/30 02:14:23;;;;;;;8.27;3.47;;;;;;;;;;5067471;28;20482;-74
2022/12/30 02:17:09;;;;;;;7.40;2.67;;;;;;;;;;5058579;28;20036;-74
2022/12/30 02:19:41;;;;;;;4.20;1.95;;;;;;;;;;5053953;28;20408;-75
2022/12/30 02:22:14;;;;;;;2.65;1.30;;;;;;;;;;5061833;28;20044;-76
2022/12/30 02:24:49;;;;;;;3.47;1.65;;;;;;;;;;5063422;28;20486;-74
2022/12/30 02:27:34;;;;;;;2.95;1.30;;;;;;;;;;5048895;28;20037;-75
2022/12/30 02:30:18;;;;;;;2.55;0.80;;;;;;;;;;5067738;28;20029;-75
2022/12/30 02:32:51;;;;;;;2.90;0.70;;;;;;;;;;5067111;28;20050;-75
2022/12/30 02:35:17;;;;;;;;;;;;;;;;;;5059107;28;20463;-74
2022/12/30 02:38:01;;;;;;;3.53;0.95;;;;;;;;;;5059948;28;19919;-75
2022/12/30 02:46:23;;;;;;;3.70;1.58;;;;;;;;;;5059596;28;20415;-75
2022/12/30 02:48:50;;;;;;;5.03;1.20;;;;;;;;;;5065828;28;20398;-75
2022/12/30 02:54:01;;;;;;;3.92;1.42;;;;;;;;;;5052271;28;20395;-75
2022/12/30 02:56:27;;;;;;;3.53;1.20;;;;;;;;;;5062843;28;20033;-75
2022/12/30 03:03:56;;;;;;;4.40;1.20;;;;;;;;;;5050563;28;20036;-74
2022/12/30 03:04:43;;;;;;;2.45;0.60;;;;;;;;;;5058001;28;20078;-75
2022/12/30 03:07:12;;;;;;;3.22;1.13;;;;;;;;;;5054138;28;20380;-75
2022/12/30 03:09:41;;;;;;;2.28;0.60;;;;;;;;;;5052021;28;20028;-75
2022/12/30 03:12:25;;;;;;;2.40;0.60;;;;;;;;;;5066811;28;20029;-75
2022/12/30 03:14:59;;;;;;;5.05;2.45;;;;;;;;;;5053231;28;20056;-74
2022/12/30 03:17:31;;;;;;;5.63;2.47;;;;;;;;;;5057079;28;20136;-75
2022/12/30 03:19:59;;;;;;;3.88;2.08;;;;;;;;;;5059948;28;20079;-74
2022/12/30 03:27:58;;;;;;;3.80;1.52;;;;;;;;;;5059070;28;20087;-75
2022/12/30 03:30:24;;;;;;;4.03;1.60;;;;;;;;;;5060470;28;20033;-75
2022/12/30 03:32:50;;;;;;;3.67;1.10;;;;;;;;;;5068172;28;20150;-75
2022/12/30 03:35:16;;;;;;;1.77;0.60;;;;;;;;;;5067711;28;20067;-75
2022/12/30 03:37:48;;;;;;;2.25;0.77;;;;;;;;;;5064210;28;20036;-75
2022/12/30 03:40:17;;;;;;;5.05;1.63;;;;;;;;;;5055860;28;20486;-75
2022/12/30 03:42:44;;;;;;;4.70;0.98;;;;;;;;;;5071477;28;20103;-75
2022/12/30 03:45:11;;;;;;;1.73;0.70;;;;;;;;;;5068515;28;20201;-74
2022/12/30 03:47:37;;;;;;;1.35;0.50;;;;;;;;;;5070437;28;20041;-75
2022/12/30 03:50:03;;;;;;;1.45;0.40;;;;;;;;;;5061024;28;20036;-74
2022/12/30 03:52:29;;;;;;;1.58;0.40;;;;;;;;;;5066933;28;20112;-74
2022/12/30 03:54:55;;;;;;;1.95;0.95;;;;;;;;;;5053422;28;20155;-74
2022/12/30 03:57:21;;;;;;;2.20;0.70;;;;;;;;;;5060257;28;20043;-75
2022/12/30 03:59:47;;;;;;;2.83;0.50;;;;;;;;;;5070672;28;20113;-75
2022/12/30 04:02:13;;;;;;;2.22;0.60;;;;;;;;;;5066155;28;20495;-75
2022/12/30 04:04:39;;;;;;;5.25;1.20;;;;;;;;;;5057152;28;20140;-74
2022/12/30 04:07:05;;;;;;;5.70;1.40;;;;;;;;;;5068843;28;20198;-74
2022/12/30 04:09:31;;;;;;;3.60;1.10;;;;;;;;;;5065222;28;20121;-75
2022/12/30 04:11:57;;;;;;;4.20;0.85;;;;;;;;;;5070656;28;20032;-75
2022/12/30 04:14:23;;;;;;;1.55;0.57;;;;;;;;;;5069944;28;20036;-75
2022/12/30 04:16:49;;;;;;;2.42;0.60;;;;;;;;;;5069694;28;20032;-76
2022/12/30 04:19:15;;;;;;;1.48;0.55;;;;;;;;;;5069954;28;20034;-75
2022/12/30 04:21:41;;;;;;;2.40;0.80;;;;;;;;;;5070129;28;20036;-74
2022/12/30 04:24:07;;;;;;;2.25;0.70;;;;;;;;;;5065130;28;20480;-75
2022/12/30 04:26:33;;;;;;;1.65;0.63;;;;;;;;;;5064695;28;20136;-75
2022/12/30 04:28:59;;;;;;;2.30;0.75;;;;;;;;;;5069492;28;20115;-75
2022/12/30 04:31:25;;;;;;;3.38;0.60;;;;;;;;;;5070052;28;20444;-74
2022/12/30 04:33:52;;;;;;;1.73;0.60;;;;;;;;;;5069430;28;20028;-75
2022/12/30 04:36:19;;;;;;;2.35;0.60;;;;;;;;;;5068564;28;20036;-75
2022/12/30 04:38:45;;;;;;;3.58;0.73;;;;;;;;;;5064166;28;20047;-75
2022/12/30 04:41:11;;;;;;;1.55;0.60;;;;;;;;;;5056964;28;20037;-75
2022/12/30 04:43:37;;;;;;;3.13;0.60;;;;;;;;;;5058566;28;20117;-74
2022/12/30 04:46:03;;;;;;;2.83;0.85;;;;;;;;;;5065707;28;20032;-75
2022/12/30 04:48:29;;;;;;;4.20;1.00;;;;;;;;;;5063789;28;20024;-74
2022/12/30 04:50:55;;;;;;;1.70;0.40;;;;;;;;;;5061343;28;20048;-75
2022/12/30 04:53:21;;;;;;;1.70;0.80;;;;;;;;;;5053324;28;20033;-75
2022/12/30 04:55:55;;;;;;;3.75;0.65;;;;;;;;;;5059387;28;20111;-74
2022/12/30 04:58:21;;;;;;;3.25;1.17;;;;;;;;;;5067258;28;20039;-75
2022/12/30 05:00:48;;;;;;;3.22;0.75;;;;;;;;;;5064493;28;20135;-74
2022/12/30 05:03:14;;;;;;;2.92;0.75;;;;;;;;;;5064449;28;20564;-75
2022/12/30 05:05:40;;;;;;;2.42;0.77;;;;;;;;;;5066585;28;20060;-75
2022/12/30 05:08:06;;;;;;;3.78;1.75;;;;;;;;;;5051383;28;20025;-75
2022/12/30 05:10:36;;;;;;;3.88;1.25;;;;;;;;;;5065704;28;20162;-75
2022/12/30 05:13:02;;;;;;;2.85;1.23;;;;;;;;;;5063830;28;20070;-75
2022/12/30 05:15:28;;;;;;;4.40;2.13;;;;;;;;;;5060513;28;20094;-74
2022/12/30 05:17:54;;;;;;;2.65;0.90;;;;;;;;;;5067855;28;20032;-75
2022/12/30 05:20:20;;;;;;;3.03;0.88;;;;;;;;;;5067067;28;20036;-75
2022/12/30 05:22:46;;;;;;;3.45;0.98;;;;;;;;;;5067564;28;20360;-75
2022/12/30 05:27:57;;;;;;;11.63;4.93;;;;;;;;;;5061674;28;20127;-74
2022/12/30 05:30:23;;;;;;;9.18;3.47;;;;;;;;;;5062548;28;20123;-75
2022/12/30 05:32:49;;;;;;;8.65;2.72;;;;;;;;;;5058790;28;20103;-74
2022/12/30 05:35:16;;;;;;;4.10;1.60;;;;;;;;;;5062585;28;20436;-74
2022/12/30 05:37:42;;;;;;;9.57;2.95;;;;;;;;;;5057210;28;20043;-75
2022/12/30 05:40:08;;;;;;;4.10;1.23;;;;;;;;;;5067829;28;20115;-74
2022/12/30 05:42:34;;;;;;;4.47;1.40;;;;;;;;;;5068264;28;20028;-75
2022/12/30 05:45:00;;;;;;;4.95;2.33;;;;;;;;;;5064241;28;20040;-75
2022/12/30 05:47:26;;;;;;;6.47;2.40;;;;;;;;;;5067446;28;20079;-76
2022/12/30 05:49:52;;;;;;;6.38;2.78;;;;;;;;;;5062259;28;20024;-75
2022/12/30 05:52:18;;;;;;;2.20;1.00;;;;;;;;;;5067795;28;20536;-75
2022/12/30 05:54:44;;;;;;;4.13;1.13;;;;;;;;;;5064620;28;20079;-75
2022/12/30 05:57:10;;;;;;;6.53;2.00;;;;;;;;;;5068365;28;20613;-75
2022/12/30 05:59:37;;;;;;;6.03;2.55;;;;;;;;;;5068876;28;20111;-75
2022/12/30 06:02:03;;;;;;;4.18;1.90;;;;;;;;;;5064682;28;20044;-75
2022/12/30 06:04:29;;;;;;;4.82;3.10;;;;;;;;;;5053353;28;20041;-75
2022/12/30 06:06:54;;;;;;;3.88;2.00;;;;;;;;;;5056333;28;20641;-76
2022/12/30 06:09:20;;;;;;;4.70;1.88;;;;;;;;;;5053604;28;20037;-74
2022/12/30 06:11:46;;;;;;;3.83;1.73;;;;;;;;;;5063378;28;20029;-75
2022/12/30 06:14:15;;;;;;;3.03;1.50;;;;;;;;;;5062296;28;20147;-75
2022/12/30 06:16:41;;;;;;;1.98;0.70;;;;;;;;;;5063454;28;20055;-75
2022/12/30 06:19:07;;;;;;;3.17;1.27;;;;;;;;;;5063641;28;20480;-74
2022/12/30 06:21:34;;;;;;;2.00;1.00;;;;;;;;;;5061089;28;20037;-74
2022/12/30 06:24:00;;;;;;;6.22;3.78;;;;;;;;;;5066235;28;20060;-74
2022/12/30 06:26:26;;;;;;;2.20;1.10;;;;;;;;;;5057814;28;20071;-75
2022/12/30 06:28:52;;;;;;;3.20;1.00;;;;;;;;;;5060941;28;20028;-75
2022/12/30 06:31:18;;;;;;;3.33;1.38;;;;;;;;;;5058823;28;20070;-74
2022/12/30 06:33:44;;;;;;;2.47;0.70;;;;;;;;;;5059675;28;20234;-75
2022/12/30 06:36:10;;;;;;;2.33;0.60;;;;;;;;;;5058105;28;20032;-75
2022/12/30 06:38:37;;;;;;;2.00;0.70;;;;;;;;;;5060139;28;20098;-75
2022/12/30 06:41:03;;;;;;;2.75;1.10;;;;;;;;;;5061581;28;20043;-75
2022/12/30 06:43:29;;;;;;;4.90;1.10;;;;;;;;;;5057933;28;20494;-75
2022/12/30 06:45:55;;;;;;;2.78;1.00;;;;;;;;;;5055507;28;20029;-74
2022/12/30 06:48:21;;;;;;;2.08;1.00;;;;;;;;;;5062432;28;20025;-75
2022/12/30 06:50:47;;;;;;;3.30;1.17;;;;;;;;;;5061291;28;20029;-75
2022/12/30 06:53:14;;;;;;;3.38;1.17;;;;;;;;;;5055792;28;20360;-75
2022/12/30 06:55:40;;;;;;;3.13;0.80;;;;;;;;;;5064168;28;20415;-75
2022/12/30 06:58:06;;;;;;;3.60;1.40;;;;;;;;;;5053143;28;20043;-75
2022/12/30 07:00:32;;;;;;;5.13;1.63;;;;;;;;;;5062190;28;20020;-75
2022/12/30 07:02:58;;;;;;;6.97;2.40;;;;;;;;;;5058925;28;20082;-75
2022/12/30 07:05:24;;;;;;;3.97;1.65;;;;;;;;;;5056918;28;20040;-75
2022/12/30 07:07:50;;;;;;;4.85;1.80;;;;;;;;;;5061807;28;20375;-74
2022/12/30 07:10:16;;;;;;;7.78;3.28;;;;;;;;;;5062152;28;20029;-74
2022/12/30 07:12:42;;;;;;;5.28;2.70;;;;;;;;;;5064680;28;20073;-74
2022/12/30 07:15:09;;;;;;;2.78;1.40;;;;;;;;;;5060523;28;20052;-75
2022/12/30 07:17:35;;;;;;;3.40;1.40;;;;;;;;;;5059156;28;20061;-75
2022/12/30 07:20:01;;;;;;;3.05;1.20;;;;;;;;;;5066079;28;20055;-74
2022/12/30 07:22:27;;;;;;;2.92;1.10;;;;;;;;;;5067553;28;20116;-75
2022/12/30 07:24:52;;;;;;;4.10;1.27;;;;;;;;;;5064261;28;20028;-75
2022/12/30 07:27:19;;;;;;;7.95;2.85;;;;;;;;;;5066920;28;20037;-75
2022/12/30 07:29:44;;;;;;;5.57;2.30;;;;;;;;;;5057087;28;20033;-75
2022/12/30 07:32:11;;;;;;;6.68;1.90;;;;;;;;;;5062980;28;20043;-75
2022/12/30 07:34:37;;;;;;;7.13;2.88;;;;;;;;;;5053613;28;20035;-75
2022/12/30 07:37:03;;;;;;;4.50;2.40;;;;;;;;;;5072101;28;20131;-75
2022/12/30 07:39:29;;;;;;;3.75;2.03;;;;;;;;;;5067058;28;20169;-74
2022/12/30 07:41:55;;;;;;;5.53;2.78;;;;;;;;;;5063868;28;20477;-75
2022/12/30 07:44:21;;;;;;;3.80;1.20;;;;;;;;;;5062276;28;20047;-75
2022/12/30 07:46:47;;;;;;;4.50;1.63;;;;;;;;;;5068479;28;20574;-75
2022/12/30 07:49:13;;;;;;;3.75;1.80;;;;;;;;;;5061264;28;20040;-75
2022/12/30 07:51:39;;;;;;;5.85;2.55;;;;;;;;;;5058609;28;20040;-74
2022/12/30 07:54:06;;;;;;;6.90;4.15;;;;;;;;;;5062312;28;20087;-74
2022/12/30 07:56:31;;;;;;;6.10;3.47;;;;;;;;;;5062496;28;20909;-74
2022/12/30 07:58:58;;;;;;;5.53;2.30;;;;;;;;;;5052887;28;20043;-74
2022/12/30 08:01:25;;;;;;;5.75;2.88;;;;;;;;;;5039684;28;20170;-73
2022/12/30 08:03:51;;;;;;;6.75;3.85;;;;;;;;;;5058726;28;20178;-74
2022/12/30 08:06:18;;;;;;;11.85;5.78;;;;;;;;;;5061610;28;20107;-74
2022/12/30 08:08:44;;;;;;;12.13;6.32;;;;;;;;;;5061725;28;20033;-74
2022/12/30 08:11:11;;;;;;;8.15;4.47;;;;;;;;;;5063184;28;20025;-74
2022/12/30 08:13:38;;;;;;;6.82;4.60;;;;;;;;;;5066572;28;20036;-74
2022/12/30 08:16:05;;;;;;;6.68;4.25;;;;;;;;;;5060523;28;20419;-74
2022/12/30 08:18:31;;;;;;;17.67;5.05;;;;;;;;;;5063879;28;20044;-74
2022/12/30 08:21:04;;;;;;;10.07;5.18;;;;;;;;;;5063552;28;21626;-74
2022/12/30 08:23:30;;;;;;;11.13;5.97;;;;;;;;;;5060230;28;20476;-74
2022/12/30 08:25:57;;;;;;;8.65;5.05;;;;;;;;;;5061517;28;20070;-74
2022/12/30 08:28:23;;;;;;;9.18;4.78;;;;;;;;;;5061097;28;20513;-74
2022/12/30 08:30:49;;;;;;;11.00;5.30;;;;;;;;;;5073481;28;20024;-74
2022/12/30 08:33:15;;;;;;;9.23;5.93;;;;;;;;;;5060892;28;20055;-75
2022/12/30 08:35:41;;;;;;;10.10;6.72;;;;;;;;;;5062591;28;20028;-74
2022/12/30 08:38:07;;;;;;;11.20;7.22;;;;;;;;;;5067940;28;20043;-74
2022/12/30 08:40:33;;;;;;;12.52;6.07;;;;;;;;;;5064068;28;20486;-75
2022/12/30 08:42:59;;;;;;;10.48;5.75;;;;;;;;;;5067971;28;20843;-74
2022/12/30 08:45:25;;;;;;;8.25;4.75;;;;;;;;;;5062627;28;20037;-74
2022/12/30 08:47:51;;;;;;;9.90;4.75;;;;;;;;;;5060492;28;20040;-74
2022/12/30 08:50:17;;;;;;;7.57;4.97;;;;;;;;;;5062317;28;20067;-74
2022/12/30 08:52:43;;;;;;;9.65;4.82;;;;;;;;;;5059424;28;20071;-75
2022/12/30 08:55:09;;;;;;;9.50;5.25;;;;;;;;;;5062009;28;20056;-74
2022/12/30 08:57:39;;;;;;;12.52;5.60;;;;;;;;;;5055674;28;20071;-74
2022/12/30 09:00:06;;;;;;;9.25;5.20;;;;;;;;;;5061875;28;20028;-74
2022/12/30 09:02:33;;;;;;;8.23;4.35;;;;;;;;;;5067854;28;20729;-74
2022/12/30 09:04:59;;;;;;;7.78;3.47;;;;;;;;;;5067190;28;20033;-74
2022/12/30 09:07:25;;;;;;;4.93;2.33;;;;;;;;;;5062205;28;20036;-74
2022/12/30 09:09:51;;;;;;;4.82;2.00;;;;;;;;;;5065953;28;20023;-74
2022/12/30 09:12:17;;;;;;;6.82;3.30;;;;;;;;;;5060222;28;20131;-74
2022/12/30 09:14:43;;;;;;;9.77;6.07;;;;;;;;;;5055081;28;20138;-74
2022/12/30 09:17:10;;;;;;;17.58;9.77;;;;;;;;;;5059944;28;20036;-74
2022/12/30 09:19:36;;;;;;;24.77;12.80;;;;;;;;;;5060895;28;20072;-75
2022/12/30 09:22:02;;;;;;;19.60;10.90;;;;;;;;;;5064985;28;21842;-74
2022/12/30 09:24:28;;;;;;;11.40;6.20;;;;;;;;;;5062308;28;20534;-74
2022/12/30 09:26:54;;;;;;;8.65;4.82;;;;;;;;;;5055944;28;20048;-74
2022/12/30 09:29:20;;;;;;;10.63;5.55;;;;;;;;;;5058348;28;20028;-75
2022/12/30 09:31:46;;;;;;;11.68;6.60;;;;;;;;;;5058127;28;20773;-74
2022/12/30 09:34:12;;;;;;;20.42;10.48;;;;;;;;;;5055310;28;20178;-74
2022/12/30 09:36:38;;;;;;;9.70;5.38;;;;;;;;;;5063834;28;20033;-74
2022/12/30 09:39:04;;;;;;;9.02;5.18;;;;;;;;;;5059346;28;20029;-74
2022/12/30 09:44:46;;;;;;;7.60;3.60;;;;;;;;;;5057466;28;20414;-75
2022/12/30 09:47:23;;;;;;;6.05;2.55;;;;;;;;;;5058719;28;20032;-75
2022/12/30 09:49:53;;;;;;;5.38;2.72;;;;;;;;;;5060106;28;20039;-74
2022/12/30 09:52:42;;;;;;;5.53;2.15;;;;;;;;;;5058996;28;20029;-74
2022/12/30 09:55:16;;;;;;;5.68;2.63;;;;;;;;;;5059565;28;20040;-74
2022/12/30 09:57:42;;;;;;;4.78;2.47;;;;;;;;;;5060624;28;20067;-74
2022/12/30 10:00:22;;;;;;;6.35;3.00;;;;;;;;;;5059577;28;20036;-75
2022/12/30 10:02:58;;;;;;;5.25;3.17;;;;;;;;;;5053742;28;20037;-74
2022/12/30 10:05:33;;;;;;;6.90;3.50;;;;;;;;;;5057131;28;20037;-74
2022/12/30 10:08:10;;;;;;;7.55;3.63;;;;;;;;;;5047012;28;20044;-74
2022/12/30 10:10:40;;;;;;;7.20;4.28;;;;;;;;;;5061001;28;20033;-74
2022/12/30 10:13:16;;;;;;;6.97;3.97;;;;;;;;;;5055640;28;20028;-74
2022/12/30 10:15:48;;;;;;;8.10;4.25;;;;;;;;;;5061717;28;20052;-74
2022/12/30 10:18:44;;;;;;;7.75;5.20;;;;;;;;;;5058426;28;20870;-74
2022/12/30 10:21:19;;;;;;;10.82;6.93;;;;;;;;;;5046584;28;20123;-74
2022/12/30 10:23:50;;;;;;;8.45;5.70;;;;;;;;;;5055773;28;20032;-74
2022/12/30 10:26:21;;;;;;;9.50;5.23;;;;;;;;;;5062580;28;20037;-74
2022/12/30 10:28:49;;;;;;;7.78;4.78;;;;;;;;;;5062285;28;20482;-74
2022/12/30 10:31:22;;;;;;;9.73;5.70;;;;;;;;;;5060046;28;20056;-74
2022/12/30 10:33:50;;;;;;;7.32;3.72;;;;;;;;;;5057607;28;20044;-74
2022/12/30 10:36:16;;;;;;;8.02;4.43;;;;;;;;;;5054322;28;20502;-74
2022/12/30 10:38:42;;;;;;;7.95;3.83;;;;;;;;;;5056851;28;20048;-74
2022/12/30 10:41:08;;;;;;;9.77;4.75;;;;;;;;;;5058904;28;20054;-74
2022/12/30 10:43:40;;;;;;;9.20;4.68;;;;;;;;;;5064058;28;20114;-74
2022/12/30 10:46:06;;;;;;;;;;;;;;;;;;5059987;28;20033;-74
2022/12/30 10:48:41;;;;;;;7.30;4.05;;;;;;;;;;5063849;28;19911;-74
2022/12/30 10:51:08;;;;;;;7.32;4.75;;;;;;;;;;5061919;28;20041;-74
2022/12/30 10:53:34;;;;;;;9.32;4.25;;;;;;;;;;5057884;28;20431;-74
2022/12/30 10:56:01;;;;;;;10.90;5.00;;;;;;;;;;5058881;28;20051;-74
2022/12/30 10:58:34;;;;;;;7.25;3.90;;;;;;;;;;5059537;28;20503;-74
2022/12/30 11:01:01;;;;;;;9.98;6.05;;;;;;;;;;5056597;28;20483;-74
2022/12/30 11:03:30;;;;;;;7.80;4.63;;;;;;;;;;5066370;28;20111;-74
2022/12/30 11:05:57;;;;;;;9.75;4.97;;;;;;;;;;5054726;28;20044;-74
2022/12/30 11:08:23;;;;;;;9.77;4.95;;;;;;;;;;5064831;28;20033;-74
2022/12/30 11:11:02;;;;;;;9.75;3.67;;;;;;;;;;5066306;28;20078;-74
2022/12/30 11:16:14;;;;;;;10.25;5.28;;;;;;;;;;5062013;28;20063;-74
2022/12/30 11:18:44;;;;;;;8.38;5.18;;;;;;;;;;5063058;28;20032;-74
2022/12/30 11:21:09;;;;;;;10.73;5.25;;;;;;;;;;5063622;28;20082;-74
2022/12/30 11:23:39;;;;;;;8.68;4.40;;;;;;;;;;5065632;28;20458;-74
2022/12/30 11:26:07;;;;;;;10.45;5.20;;;;;;;;;;5063137;28;20037;-74
2022/12/30 11:28:37;;;;;;;10.50;5.53;;;;;;;;;;5062187;28;20115;-74
2022/12/30 11:31:06;;;;;;;12.15;7.43;;;;;;;;;;5065734;28;20894;-74
2022/12/30 11:33:34;;;;;;;14.32;7.63;;;;;;;;;;5064130;28;20027;-74
2022/12/30 11:36:38;;;;;;;18.92;8.85;;;;;;;;;;5061446;28;20028;-74
2022/12/30 11:39:05;;;;;;;13.07;8.07;;;;;;;;;;4968295;28;20478;-74
2022/12/30 11:41:31;;;;;;;15.38;9.45;;;;;;;;;;4966961;28;20037;-74
2022/12/30 11:44:00;;;;;;;17.08;9.68;;;;;;;;;;5016613;28;20842;-74
2022/12/30 11:46:47;;;;;;;15.45;8.77;;;;;;;;;;5055318;28;20025;-74
2022/12/30 11:49:16;;;;;;;16.23;10.63;;;;;;;;;;5062930;28;20077;-74
2022/12/30 11:51:43;;;;;;;14.10;9.15;;;;;;;;;;5055104;28;20033;-74
2022/12/30 11:54:12;;;;;;;23.20;12.70;;;;;;;;;;5056975;28;20112;-74
2022/12/30 11:56:38;;;;;;;19.40;12.98;;;;;;;;;;5058500;28;20032;-74
2022/12/30 11:59:16;;;;;;;17.40;11.05;;;;;;;;;;5060443;28;20112;-74
2022/12/30 12:01:50;;;;;;;16.75;9.65;;;;;;;;;;5057259;28;20079;-74
2022/12/30 12:04:49;;;;;;;22.40;14.88;;;;;;;;;;5066988;28;20032;-74
2022/12/30 12:07:18;;;;;;;28.85;20.42;;;;;;;;;;5017673;28;20167;-74
2022/12/30 12:09:58;;;;;;;22.60;16.08;;;;;;;;;;5059917;28;20834;-74
2022/12/30 12:12:27;;;;;;;24.88;14.88;;;;;;;;;;5061721;28;20379;-74
2022/12/30 12:15:22;;;;;;;22.08;15.50;;;;;;;;;;5059567;28;20060;-74
2022/12/30 12:17:55;;;;;;;24.83;17.23;;;;;;;;;;5041523;28;20102;-74
2022/12/30 12:20:25;;;;;;;27.05;15.55;;;;;;;;;;5061226;28;20074;-74
2022/12/30 12:23:01;;;;;;;20.88;15.52;;;;;;;;;;5063456;28;20062;-74
2022/12/30 12:25:50;;;;;;;23.48;16.10;;;;;;;;;;5066078;28;20040;-74
2022/12/30 12:28:16;;;;;;;23.83;16.08;;;;;;;;;;5048323;28;20044;-74
2022/12/30 12:30:53;;;;;;;21.80;15.50;;;;;;;;;;5062447;28;20450;-74
2022/12/30 12:33:28;;;;;;;37.40;25.02;;;;;;;;;;5062129;28;20032;-75
2022/12/30 12:36:20;;;;;;;35.05;27.77;;;;;;;;;;5054336;28;20043;-74
2022/12/30 12:38:49;;;;;;;32.55;23.52;;;;;;;;;;5028526;28;20568;-74
2022/12/30 12:41:34;;;;;;;33.05;26.33;;;;;;;;;;5057063;28;20526;-74
2022/12/30 12:44:26;;;;;;;25.45;17.83;;;;;;;;;;5054683;28;20088;-74
2022/12/30 12:46:55;;;;;;;24.33;15.88;;;;;;;;;;5027878;28;20056;-75
2022/12/30 12:49:40;;;;;;;32.35;20.48;;;;;;;;;;5059708;28;20078;-74
2022/12/30 12:52:15;;;;;;;30.95;20.90;;;;;;;;;;5056866;28;20094;-74
2022/12/30 12:55:00;;;;;;;23.38;16.33;;;;;;;;;;5062918;28;20047;-74
2022/12/30 12:57:29;;;;;;;15.73;10.32;;;;;;;;;;5058390;28;20106;-74
2022/12/30 13:00:09;;;;;;;18.90;12.30;;;;;;;;;;5061581;28;20036;-74
2022/12/30 13:02:54;;;;;;;19.60;14.07;;;;;;;;;;5054777;28;20047;-74
2022/12/30 13:05:29;;;;;;;19.73;12.48;;;;;;;;;;5054594;28;20031;-75
2022/12/30 13:08:09;;;;;;;14.23;9.70;;;;;;;;;;5059361;28;20131;-75
2022/12/30 13:10:35;;;;;;;15.52;8.73;;;;;;;;;;5059867;28;20063;-75
2022/12/30 13:13:04;;;;;;;12.77;7.15;;;;;;;;;;5063129;28;20436;-75
2022/12/30 13:15:35;;;;;;;13.25;8.05;;;;;;;;;;5059645;28;20048;-75
2022/12/30 13:18:04;;;;;;;13.85;9.75;;;;;;;;;;5042474;28;20036;-75
2022/12/30 13:20:31;;;;;;;14.10;8.73;;;;;;;;;;5062517;28;20036;-75
2022/12/30 13:22:59;;;;;;;21.95;11.30;;;;;;;;;;5058426;28;20078;-75
2022/12/30 13:25:38;;;;;;;21.65;13.63;;;;;;;;;;5059472;28;20036;-75
2022/12/30 13:28:05;;;;;;;14.50;10.10;;;;;;;;;;5064187;28;20032;-75
2022/12/30 13:30:41;;;;;;;13.95;8.95;;;;;;;;;;5062305;28;20074;-75
2022/12/30 13:33:13;;;;;;;22.95;15.25;;;;;;;;;;5061778;28;20035;-75
2022/12/30 13:35:39;;;;;;;;;;;;;;;;;;5057898;28;20036;-75
2022/12/30 13:38:17;;;;;;;22.02;13.90;;;;;;;;;;5054635;28;19916;-75
2022/12/30 13:41:02;;;;;;;16.65;11.95;;;;;;;;;;5061475;28;20526;-75
2022/12/30 13:43:33;;;;;;;17.30;11.48;;;;;;;;;;5058621;28;20036;-75
2022/12/30 13:46:01;;;;;;;21.27;14.85;;;;;;;;;;5052383;28;20029;-75
2022/12/30 13:48:33;;;;;;;28.42;18.65;;;;;;;;;;5059247;28;20028;-75
2022/12/30 13:51:01;;;;;;;27.50;17.87;;;;;;;;;;5061416;28;20032;-75
2022/12/30 13:53:33;;;;;;;41.05;24.67;;;;;;;;;;5063434;28;20060;-76
2022/12/30 13:55:59;;;;;;;25.95;16.20;;;;;;;;;;5060403;28;20128;-75
2022/12/30 13:58:28;;;;;;;17.40;10.45;;;;;;;;;;5064243;28;20037;-75
2022/12/30 14:01:13;;;;;;;19.00;9.30;;;;;;;;;;5056726;28;20135;-75
2022/12/30 14:03:39;;;;;;;23.25;12.88;;;;;;;;;;5054365;28;20570;-75
2022/12/30 14:06:24;;;;;;;17.77;8.90;;;;;;;;;;5059359;28;20124;-75
2022/12/30 14:08:52;;;;;;;6.85;4.75;;;;;;;;;;5064440;28;20099;-75
2022/12/30 14:11:18;;;;;;;9.50;4.97;;;;;;;;;;5060163;28;20033;-75
2022/12/30 14:14:04;;;;;;;1.77;0.70;;;;;;;;;;5053574;28;20044;-76
2022/12/30 14:16:42;;;;;;;4.20;1.00;;;;;;;;;;5058353;28;20586;-76
2022/12/30 14:19:12;;;;;;;4.88;1.40;;;;;;;;;;5057748;28;20028;-73
2022/12/30 14:22:04;;;;;;;6.53;1.30;;;;;;;;;;5058833;28;20056;-76
2022/12/30 14:24:39;;;;;;;3.33;1.23;;;;;;;;;;5055525;28;20743;-73
2022/12/30 14:27:24;;;;;;;3.55;1.27;;;;;;;;;;5055616;28;20631;-74
2022/12/30 14:30:15;;;;;;;6.57;1.58;;;;;;;;;;5058899;28;20086;-75
2022/12/30 14:32:43;;;;;;;3.20;1.20;;;;;;;;;;5060454;28;20493;-75
2022/12/30 14:35:14;;;;;;;3.72;1.52;;;;;;;;;;5058611;28;20662;-75
2022/12/30 14:37:41;;;;;;;4.18;1.52;;;;;;;;;;5063140;28;20416;-75
2022/12/30 14:40:22;;;;;;;4.78;1.88;;;;;;;;;;5057554;28;20111;-73
2022/12/30 14:42:52;;;;;;;6.28;3.08;;;;;;;;;;5057948;28;20032;-75
2022/12/30 14:45:22;;;;;;;11.88;5.10;;;;;;;;;;5054992;28;20082;-75
2022/12/30 14:47:48;;;;;;;11.38;4.65;;;;;;;;;;5059873;28;20074;-75
2022/12/30 14:50:15;;;;;;;5.85;2.60;;;;;;;;;;5057152;28;20379;-75
2022/12/30 14:53:00;;;;;;;3.92;1.50;;;;;;;;;;5059339;28;20031;-75
2022/12/30 14:55:27;;;;;;;5.90;1.50;;;;;;;;;;5058332;28;20151;-75
2022/12/30 14:57:58;;;;;;;4.32;0.90;;;;;;;;;;5055062;28;20028;-75
2022/12/30 15:00:27;;;;;;;2.25;0.70;;;;;;;;;;5057413;28;20044;-75
2022/12/30 15:02:54;;;;;;;6.30;1.10;;;;;;;;;;5057596;28;20033;-75
2022/12/30 15:05:30;;;;;;;2.72;1.00;;;;;;;;;;5060701;28;20033;-75
2022/12/30 15:08:07;;;;;;;2.15;0.80;;;;;;;;;;5063065;28;20403;-75
2022/12/30 15:10:36;;;;;;;3.10;0.98;;;;;;;;;;5059059;28;20032;-74
2022/12/30 15:13:21;;;;;;;4.50;1.77;;;;;;;;;;5055185;28;20037;-75
2022/12/30 15:15:50;;;;;;;8.48;2.78;;;;;;;;;;5052173;28;20080;-75
2022/12/30 15:18:17;;;;;;;5.47;1.45;;;;;;;;;;5057579;28;20032;-75
2022/12/30 15:20:43;;;;;;;8.50;2.20;;;;;;;;;;5062508;28;20028;-75
2022/12/30 15:23:14;;;;;;;5.60;2.03;;;;;;;;;;5060526;28;20028;-75
2022/12/30 15:25:40;;;;;;;4.57;2.28;;;;;;;;;;5060270;28;20032;-75
2022/12/30 15:28:09;;;;;;;7.60;3.58;;;;;;;;;;5064941;28;20586;-73
2022/12/30 15:30:35;;;;;;;11.55;4.60;;;;;;;;;;5065075;28;20108;-76
2022/12/30 15:33:11;;;;;;;5.47;2.22;;;;;;;;;;5060505;28;20120;-75
2022/12/30 15:35:38;;;;;;;5.50;2.25;;;;;;;;;;5061470;28;20028;-75
2022/12/30 15:38:06;;;;;;;12.75;5.70;;;;;;;;;;5063156;28;20032;-75
2022/12/30 15:40:33;;;;;;;10.90;4.50;;;;;;;;;;5068231;28;20036;-75
2022/12/30 15:43:03;;;;;;;5.47;2.15;;;;;;;;;;5064127;28;20036;-75
2022/12/30 15:45:34;;;;;;;3.47;1.40;;;;;;;;;;5062790;28;20386;-75
2022/12/30 15:48:00;;;;;;;2.55;1.15;;;;;;;;;;5059469;28;20037;-74
2022/12/30 15:50:36;;;;;;;4.65;1.33;;;;;;;;;;5064089;28;20032;-75